Terminal Aerodrome Forecast
Issued by NWS St Louis, MO

Home | Current Version | Previous Version | Text Only | Print | Product List | Glossary On
Versions: 1 2 3 4 5 6 7 8 9 10 11 12 13
000
FTUS43 KLSX 171700
TAFCOU
TAF
KCOU 171720Z 1718/1818 VRB03KT P6SM SCT025 BKN250
     FM180000 35005KT P6SM BKN050
     FM180400 VRB04KT P6SM SCT050 BKN120
     FM181400 VRB04KT P6SM SCT250=

USA.gov is the U.S. government's official web portal to all federal, state and local government web resources and services.